sensor_id;sensor_type;location;lat;lon;timestamp;P1;durP1;ratioP1;P2;durP2;ratioP2
25127;SDS011;13107;51.304;6.866;2023-02-28T00:00:11;7.40;;;4.28;;
25127;SDS011;13107;51.304;6.866;2023-02-28T00:04:14;6.45;;;4.40;;
25127;SDS011;13107;51.304;6.866;2023-02-28T00:08:16;7.05;;;4.75;;
25127;SDS011;13107;51.304;6.866;2023-02-28T00:12:18;5.78;;;3.92;;
25127;SDS011;13107;51.304;6.866;2023-02-28T00:16:21;9.90;;;4.95;;
25127;SDS011;13107;51.304;6.866;2023-02-28T00:20:24;8.32;;;4.95;;
25127;SDS011;13107;51.304;6.866;2023-02-28T00:24:25;6.97;;;4.95;;
25127;SDS011;13107;51.304;6.866;2023-02-28T00:28:27;10.50;;;5.03;;
25127;SDS011;13107;51.304;6.866;2023-02-28T00:32:29;9.02;;;5.10;;
25127;SDS011;13107;51.304;6.866;2023-02-28T00:36:31;9.15;;;4.65;;
25127;SDS011;13107;51.304;6.866;2023-02-28T00:40:33;9.18;;;4.68;;
25127;SDS011;13107;51.304;6.866;2023-02-28T00:44:34;5.87;;;4.45;;
25127;SDS011;13107;51.304;6.866;2023-02-28T00:48:36;6.20;;;4.20;;
25127;SDS011;13107;51.304;6.866;2023-02-28T00:52:38;6.57;;;4.65;;
25127;SDS011;13107;51.304;6.866;2023-02-28T00:56:40;7.55;;;4.90;;
25127;SDS011;13107;51.304;6.866;2023-02-28T01:00:41;6.78;;;4.43;;
25127;SDS011;13107;51.304;6.866;2023-02-28T01:04:43;9.18;;;4.65;;
25127;SDS011;13107;51.304;6.866;2023-02-28T01:08:45;13.52;;;5.20;;
25127;SDS011;13107;51.304;6.866;2023-02-28T01:12:46;7.43;;;4.73;;
25127;SDS011;13107;51.304;6.866;2023-02-28T01:16:48;7.90;;;5.30;;
25127;SDS011;13107;51.304;6.866;2023-02-28T01:20:50;13.70;;;5.28;;
25127;SDS011;13107;51.304;6.866;2023-02-28T01:24:53;10.70;;;4.90;;
25127;SDS011;13107;51.304;6.866;2023-02-28T01:28:55;7.37;;;4.62;;
25127;SDS011;13107;51.304;6.866;2023-02-28T01:32:57;9.25;;;4.78;;
25127;SDS011;13107;51.304;6.866;2023-02-28T01:36:59;6.68;;;4.22;;
25127;SDS011;13107;51.304;6.866;2023-02-28T01:41:00;8.10;;;4.70;;
25127;SDS011;13107;51.304;6.866;2023-02-28T01:49:23;8.50;;;4.30;;
25127;SDS011;13107;51.304;6.866;2023-02-28T01:53:36;7.72;;;4.60;;
25127;SDS011;13107;51.304;6.866;2023-02-28T01:57:49;9.30;;;4.87;;
25127;SDS011;13107;51.304;6.866;2023-02-28T02:01:53;7.85;;;4.12;;
25127;SDS011;13107;51.304;6.866;2023-02-28T02:05:56;7.93;;;4.87;;
25127;SDS011;13107;51.304;6.866;2023-02-28T02:10:17;7.87;;;4.70;;
25127;SDS011;13107;51.304;6.866;2023-02-28T02:23:16;7.57;;;4.90;;
25127;SDS011;13107;51.304;6.866;2023-02-28T02:27:25;7.40;;;4.45;;
25127;SDS011;13107;51.304;6.866;2023-02-28T02:31:41;9.77;;;4.68;;
25127;SDS011;13107;51.304;6.866;2023-02-28T02:44:17;7.62;;;4.93;;
25127;SDS011;13107;51.304;6.866;2023-02-28T02:48:26;7.50;;;4.40;;
25127;SDS011;13107;51.304;6.866;2023-02-28T02:52:36;11.15;;;5.37;;
25127;SDS011;13107;51.304;6.866;2023-02-28T02:56:44;9.50;;;4.62;;
25127;SDS011;13107;51.304;6.866;2023-02-28T03:00:50;11.82;;;4.72;;
25127;SDS011;13107;51.304;6.866;2023-02-28T03:04:58;9.18;;;5.03;;
25127;SDS011;13107;51.304;6.866;2023-02-28T03:09:03;7.20;;;4.47;;
25127;SDS011;13107;51.304;6.866;2023-02-28T03:13:15;7.72;;;4.35;;
25127;SDS011;13107;51.304;6.866;2023-02-28T03:17:33;8.50;;;5.00;;
25127;SDS011;13107;51.304;6.866;2023-02-28T03:22:00;7.03;;;4.97;;
25127;SDS011;13107;51.304;6.866;2023-02-28T03:26:24;13.48;;;4.75;;
25127;SDS011;13107;51.304;6.866;2023-02-28T03:30:42;8.93;;;4.87;;
25127;SDS011;13107;51.304;6.866;2023-02-28T03:39:18;9.88;;;4.80;;
25127;SDS011;13107;51.304;6.866;2023-02-28T03:43:29;9.63;;;4.85;;
25127;SDS011;13107;51.304;6.866;2023-02-28T03:47:39;7.15;;;4.55;;
25127;SDS011;13107;51.304;6.866;2023-02-28T03:51:52;8.35;;;4.65;;
25127;SDS011;13107;51.304;6.866;2023-02-28T03:56:11;7.68;;;4.72;;
25127;SDS011;13107;51.304;6.866;2023-02-28T04:00:21;8.55;;;4.43;;
25127;SDS011;13107;51.304;6.866;2023-02-28T04:04:29;9.00;;;4.57;;
25127;SDS011;13107;51.304;6.866;2023-02-28T04:08:31;8.48;;;4.22;;
25127;SDS011;13107;51.304;6.866;2023-02-28T04:12:32;8.13;;;3.45;;
25127;SDS011;13107;51.304;6.866;2023-02-28T04:16:37;6.78;;;4.00;;
25127;SDS011;13107;51.304;6.866;2023-02-28T04:24:42;6.62;;;4.20;;
25127;SDS011;13107;51.304;6.866;2023-02-28T04:28:44;8.20;;;4.25;;
25127;SDS011;13107;51.304;6.866;2023-02-28T04:32:46;12.60;;;4.20;;
25127;SDS011;13107;51.304;6.866;2023-02-28T04:36:48;7.53;;;4.55;;
25127;SDS011;13107;51.304;6.866;2023-02-28T04:41:12;8.50;;;4.57;;
25127;SDS011;13107;51.304;6.866;2023-02-28T04:45:15;9.15;;;4.53;;
25127;SDS011;13107;51.304;6.866;2023-02-28T04:49:18;7.68;;;4.47;;
25127;SDS011;13107;51.304;6.866;2023-02-28T04:53:20;7.18;;;4.40;;
25127;SDS011;13107;51.304;6.866;2023-02-28T04:57:22;8.68;;;4.40;;
25127;SDS011;13107;51.304;6.866;2023-02-28T05:09:32;6.25;;;3.80;;
25127;SDS011;13107;51.304;6.866;2023-02-28T05:13:34;6.90;;;4.70;;
25127;SDS011;13107;51.304;6.866;2023-02-28T05:17:36;10.23;;;4.80;;
25127;SDS011;13107;51.304;6.866;2023-02-28T05:21:39;6.28;;;4.10;;
25127;SDS011;13107;51.304;6.866;2023-02-28T05:25:42;13.82;;;7.40;;
25127;SDS011;13107;51.304;6.866;2023-02-28T05:29:43;29.00;;;15.32;;
25127;SDS011;13107;51.304;6.866;2023-02-28T05:33:46;21.17;;;11.27;;
25127;SDS011;13107;51.304;6.866;2023-02-28T05:37:47;14.00;;;8.38;;
25127;SDS011;13107;51.304;6.866;2023-02-28T05:41:49;12.05;;;7.60;;
25127;SDS011;13107;51.304;6.866;2023-02-28T05:45:51;14.18;;;6.40;;
25127;SDS011;13107;51.304;6.866;2023-02-28T05:49:52;8.88;;;5.53;;
25127;SDS011;13107;51.304;6.866;2023-02-28T05:53:54;8.13;;;4.90;;
25127;SDS011;13107;51.304;6.866;2023-02-28T05:57:59;6.65;;;4.62;;
25127;SDS011;13107;51.304;6.866;2023-02-28T06:02:00;8.30;;;5.10;;
25127;SDS011;13107;51.304;6.866;2023-02-28T06:06:02;10.18;;;6.50;;
25127;SDS011;13107;51.304;6.866;2023-02-28T06:10:04;14.25;;;7.90;;
25127;SDS011;13107;51.304;6.866;2023-02-28T06:14:06;10.48;;;6.55;;
25127;SDS011;13107;51.304;6.866;2023-02-28T06:18:08;6.95;;;4.45;;
25127;SDS011;13107;51.304;6.866;2023-02-28T06:22:10;8.77;;;4.85;;
25127;SDS011;13107;51.304;6.866;2023-02-28T06:26:11;6.25;;;3.95;;
25127;SDS011;13107;51.304;6.866;2023-02-28T06:30:13;8.90;;;4.28;;
25127;SDS011;13107;51.304;6.866;2023-02-28T06:34:15;50.65;;;25.90;;
25127;SDS011;13107;51.304;6.866;2023-02-28T06:38:18;15.60;;;7.68;;
25127;SDS011;13107;51.304;6.866;2023-02-28T06:42:20;7.62;;;4.60;;
25127;SDS011;13107;51.304;6.866;2023-02-28T06:46:22;6.55;;;3.90;;
25127;SDS011;13107;51.304;6.866;2023-02-28T06:50:24;7.22;;;4.15;;
25127;SDS011;13107;51.304;6.866;2023-02-28T06:54:26;8.25;;;4.28;;
25127;SDS011;13107;51.304;6.866;2023-02-28T06:58:28;31.87;;;15.13;;
25127;SDS011;13107;51.304;6.866;2023-02-28T07:02:30;22.35;;;11.80;;
25127;SDS011;13107;51.304;6.866;2023-02-28T07:06:32;9.13;;;5.57;;
25127;SDS011;13107;51.304;6.866;2023-02-28T07:10:36;5.07;;;4.10;;
25127;SDS011;13107;51.304;6.866;2023-02-28T07:14:38;6.57;;;3.97;;
25127;SDS011;13107;51.304;6.866;2023-02-28T07:18:40;7.18;;;4.30;;
25127;SDS011;13107;51.304;6.866;2023-02-28T07:22:42;5.90;;;3.75;;
25127;SDS011;13107;51.304;6.866;2023-02-28T07:26:44;6.75;;;3.97;;
25127;SDS011;13107;51.304;6.866;2023-02-28T07:30:45;7.68;;;3.72;;
25127;SDS011;13107;51.304;6.866;2023-02-28T07:34:47;7.22;;;4.03;;
25127;SDS011;13107;51.304;6.866;2023-02-28T07:38:49;6.95;;;4.00;;
25127;SDS011;13107;51.304;6.866;2023-02-28T07:42:51;6.32;;;3.80;;
25127;SDS011;13107;51.304;6.866;2023-02-28T07:46:53;6.43;;;4.20;;
25127;SDS011;13107;51.304;6.866;2023-02-28T07:50:55;8.30;;;4.00;;
25127;SDS011;13107;51.304;6.866;2023-02-28T07:54:58;6.35;;;3.62;;
25127;SDS011;13107;51.304;6.866;2023-02-28T07:58:59;6.50;;;3.97;;
25127;SDS011;13107;51.304;6.866;2023-02-28T08:03:02;7.30;;;3.80;;
25127;SDS011;13107;51.304;6.866;2023-02-28T08:07:04;5.90;;;3.65;;
25127;SDS011;13107;51.304;6.866;2023-02-28T08:11:06;6.62;;;3.65;;
25127;SDS011;13107;51.304;6.866;2023-02-28T08:15:08;6.75;;;4.32;;
25127;SDS011;13107;51.304;6.866;2023-02-28T08:19:10;6.32;;;4.15;;
25127;SDS011;13107;51.304;6.866;2023-02-28T08:23:12;10.85;;;5.35;;
25127;SDS011;13107;51.304;6.866;2023-02-28T08:27:13;8.55;;;5.07;;
25127;SDS011;13107;51.304;6.866;2023-02-28T08:31:16;7.70;;;3.80;;
25127;SDS011;13107;51.304;6.866;2023-02-28T08:35:18;9.25;;;4.03;;
25127;SDS011;13107;51.304;6.866;2023-02-28T08:39:20;7.03;;;3.00;;
25127;SDS011;13107;51.304;6.866;2023-02-28T08:43:21;5.80;;;3.22;;
25127;SDS011;13107;51.304;6.866;2023-02-28T08:47:23;5.28;;;3.12;;
25127;SDS011;13107;51.304;6.866;2023-02-28T08:51:25;4.50;;;2.85;;
25127;SDS011;13107;51.304;6.866;2023-02-28T08:55:28;6.78;;;3.05;;
25127;SDS011;13107;51.304;6.866;2023-02-28T08:59:30;3.95;;;2.45;;
25127;SDS011;13107;51.304;6.866;2023-02-28T09:03:31;5.85;;;2.60;;
25127;SDS011;13107;51.304;6.866;2023-02-28T09:07:33;6.50;;;2.33;;
25127;SDS011;13107;51.304;6.866;2023-02-28T09:11:35;2.85;;;1.75;;
25127;SDS011;13107;51.304;6.866;2023-02-28T09:15:37;3.45;;;2.15;;
25127;SDS011;13107;51.304;6.866;2023-02-28T09:19:39;3.37;;;1.70;;
25127;SDS011;13107;51.304;6.866;2023-02-28T09:23:41;2.75;;;1.65;;
25127;SDS011;13107;51.304;6.866;2023-02-28T09:27:44;4.07;;;1.80;;
25127;SDS011;13107;51.304;6.866;2023-02-28T09:31:46;2.47;;;1.30;;
25127;SDS011;13107;51.304;6.866;2023-02-28T09:35:49;2.53;;;1.40;;
25127;SDS011;13107;51.304;6.866;2023-02-28T09:39:51;3.28;;;1.30;;
25127;SDS011;13107;51.304;6.866;2023-02-28T09:43:54;2.78;;;1.12;;
25127;SDS011;13107;51.304;6.866;2023-02-28T09:48:10;6.18;;;2.78;;
25127;SDS011;13107;51.304;6.866;2023-02-28T09:52:18;7.07;;;1.50;;
25127;SDS011;13107;51.304;6.866;2023-02-28T09:56:39;2.60;;;1.50;;
25127;SDS011;13107;51.304;6.866;2023-02-28T10:00:42;4.53;;;1.50;;
25127;SDS011;13107;51.304;6.866;2023-02-28T10:04:52;3.75;;;2.10;;
25127;SDS011;13107;51.304;6.866;2023-02-28T10:09:03;4.70;;;2.17;;
25127;SDS011;13107;51.304;6.866;2023-02-28T10:13:22;2.20;;;1.35;;
25127;SDS011;13107;51.304;6.866;2023-02-28T10:17:36;2.97;;;1.55;;
25127;SDS011;13107;51.304;6.866;2023-02-28T10:21:59;2.47;;;1.20;;
25127;SDS011;13107;51.304;6.866;2023-02-28T10:26:11;3.03;;;1.30;;
25127;SDS011;13107;51.304;6.866;2023-02-28T10:30:14;1.85;;;1.10;;
25127;SDS011;13107;51.304;6.866;2023-02-28T10:34:16;3.05;;;1.40;;
25127;SDS011;13107;51.304;6.866;2023-02-28T10:38:32;2.33;;;1.30;;
25127;SDS011;13107;51.304;6.866;2023-02-28T10:42:35;2.87;;;1.27;;
25127;SDS011;13107;51.304;6.866;2023-02-28T10:46:40;3.28;;;1.30;;
25127;SDS011;13107;51.304;6.866;2023-02-28T10:54:51;3.20;;;1.50;;
25127;SDS011;13107;51.304;6.866;2023-02-28T10:59:24;4.60;;;1.50;;
25127;SDS011;13107;51.304;6.866;2023-02-28T11:03:34;2.15;;;1.10;;
25127;SDS011;13107;51.304;6.866;2023-02-28T11:07:36;3.83;;;1.30;;
25127;SDS011;13107;51.304;6.866;2023-02-28T11:11:52;2.47;;;1.10;;
25127;SDS011;13107;51.304;6.866;2023-02-28T11:15:55;2.33;;;0.90;;
25127;SDS011;13107;51.304;6.866;2023-02-28T11:20:06;3.22;;;1.05;;
25127;SDS011;13107;51.304;6.866;2023-02-28T11:24:37;2.92;;;1.17;;
25127;SDS011;13107;51.304;6.866;2023-02-28T11:28:44;2.62;;;1.50;;
25127;SDS011;13107;51.304;6.866;2023-02-28T11:32:49;2.65;;;1.30;;
25127;SDS011;13107;51.304;6.866;2023-02-28T11:36:51;2.72;;;1.23;;
25127;SDS011;13107;51.304;6.866;2023-02-28T12:07:18;2.95;;;1.40;;
25127;SDS011;13107;51.304;6.866;2023-02-28T12:15:32;2.30;;;1.27;;
25127;SDS011;13107;51.304;6.866;2023-02-28T12:19:52;1.83;;;0.98;;
25127;SDS011;13107;51.304;6.866;2023-02-28T12:24:18;1.92;;;1.30;;
25127;SDS011;13107;51.304;6.866;2023-02-28T12:28:34;4.90;;;1.60;;
25127;SDS011;13107;51.304;6.866;2023-02-28T12:32:44;3.28;;;1.77;;
25127;SDS011;13107;51.304;6.866;2023-02-28T12:36:49;2.55;;;1.35;;
25127;SDS011;13107;51.304;6.866;2023-02-28T12:40:56;2.97;;;1.40;;
25127;SDS011;13107;51.304;6.866;2023-02-28T12:45:08;1.85;;;1.27;;
25127;SDS011;13107;51.304;6.866;2023-02-28T12:49:16;2.53;;;1.60;;
25127;SDS011;13107;51.304;6.866;2023-02-28T12:53:24;2.70;;;1.50;;
25127;SDS011;13107;51.304;6.866;2023-02-28T12:58:14;3.75;;;1.52;;
25127;SDS011;13107;51.304;6.866;2023-02-28T13:02:21;2.87;;;1.50;;
25127;SDS011;13107;51.304;6.866;2023-02-28T13:06:49;2.45;;;1.30;;
25127;SDS011;13107;51.304;6.866;2023-02-28T13:11:04;4.75;;;1.50;;
25127;SDS011;13107;51.304;6.866;2023-02-28T13:15:24;2.45;;;1.55;;
25127;SDS011;13107;51.304;6.866;2023-02-28T13:19:30;2.10;;;1.52;;
25127;SDS011;13107;51.304;6.866;2023-02-28T13:27:58;3.03;;;1.50;;
25127;SDS011;13107;51.304;6.866;2023-02-28T13:40:33;2.62;;;1.95;;
25127;SDS011;13107;51.304;6.866;2023-02-28T13:45:18;3.30;;;1.80;;
25127;SDS011;13107;51.304;6.866;2023-02-28T13:58:00;3.62;;;1.62;;
25127;SDS011;13107;51.304;6.866;2023-02-28T14:02:32;3.35;;;1.73;;
25127;SDS011;13107;51.304;6.866;2023-02-28T14:06:56;4.32;;;2.92;;
25127;SDS011;13107;51.304;6.866;2023-02-28T14:11:04;4.68;;;2.53;;
25127;SDS011;13107;51.304;6.866;2023-02-28T14:19:29;3.58;;;2.08;;
25127;SDS011;13107;51.304;6.866;2023-02-28T14:28:28;3.72;;;2.17;;
25127;SDS011;13107;51.304;6.866;2023-02-28T14:37:01;3.95;;;1.70;;
25127;SDS011;13107;51.304;6.866;2023-02-28T14:41:06;3.72;;;1.70;;
25127;SDS011;13107;51.304;6.866;2023-02-28T14:45:23;3.87;;;1.80;;
25127;SDS011;13107;51.304;6.866;2023-02-28T14:49:26;4.22;;;1.80;;
25127;SDS011;13107;51.304;6.866;2023-02-28T14:53:30;3.15;;;1.95;;
25127;SDS011;13107;51.304;6.866;2023-02-28T14:57:41;3.50;;;1.87;;
25127;SDS011;13107;51.304;6.866;2023-02-28T15:02:13;5.10;;;2.35;;
25127;SDS011;13107;51.304;6.866;2023-02-28T15:06:22;2.58;;;1.62;;
25127;SDS011;13107;51.304;6.866;2023-02-28T15:10:28;2.70;;;1.80;;
25127;SDS011;13107;51.304;6.866;2023-02-28T15:14:30;7.07;;;2.10;;
25127;SDS011;13107;51.304;6.866;2023-02-28T15:22:51;5.55;;;1.90;;
25127;SDS011;13107;51.304;6.866;2023-02-28T15:27:00;4.80;;;2.10;;
25127;SDS011;13107;51.304;6.866;2023-02-28T15:31:18;3.50;;;1.95;;
25127;SDS011;13107;51.304;6.866;2023-02-28T15:35:28;2.45;;;1.65;;
25127;SDS011;13107;51.304;6.866;2023-02-28T15:39:31;2.80;;;2.08;;
25127;SDS011;13107;51.304;6.866;2023-02-28T15:43:43;3.75;;;2.20;;
25127;SDS011;13107;51.304;6.866;2023-02-28T15:47:46;3.60;;;2.25;;
25127;SDS011;13107;51.304;6.866;2023-02-28T15:51:49;2.72;;;1.80;;
25127;SDS011;13107;51.304;6.866;2023-02-28T15:55:54;2.80;;;2.00;;
25127;SDS011;13107;51.304;6.866;2023-02-28T16:00:02;3.00;;;2.40;;
25127;SDS011;13107;51.304;6.866;2023-02-28T16:04:12;5.47;;;2.50;;
25127;SDS011;13107;51.304;6.866;2023-02-28T16:08:16;2.42;;;1.98;;
25127;SDS011;13107;51.304;6.866;2023-02-28T16:12:19;3.65;;;2.00;;
25127;SDS011;13107;51.304;6.866;2023-02-28T16:16:24;7.45;;;2.22;;
25127;SDS011;13107;51.304;6.866;2023-02-28T16:20:28;3.90;;;2.30;;
25127;SDS011;13107;51.304;6.866;2023-02-28T16:24:31;4.70;;;2.60;;
25127;SDS011;13107;51.304;6.866;2023-02-28T16:28:34;3.97;;;1.90;;
25127;SDS011;13107;51.304;6.866;2023-02-28T16:32:37;5.43;;;2.50;;
25127;SDS011;13107;51.304;6.866;2023-02-28T16:36:39;4.62;;;2.10;;
25127;SDS011;13107;51.304;6.866;2023-02-28T16:40:42;3.05;;;2.70;;
25127;SDS011;13107;51.304;6.866;2023-02-28T16:44:43;2.85;;;2.03;;
25127;SDS011;13107;51.304;6.866;2023-02-28T16:48:46;3.80;;;2.40;;
25127;SDS011;13107;51.304;6.866;2023-02-28T16:52:52;3.62;;;2.10;;
25127;SDS011;13107;51.304;6.866;2023-02-28T16:56:55;4.43;;;2.53;;
25127;SDS011;13107;51.304;6.866;2023-02-28T17:00:57;4.05;;;2.35;;
25127;SDS011;13107;51.304;6.866;2023-02-28T17:04:58;4.43;;;2.45;;
25127;SDS011;13107;51.304;6.866;2023-02-28T17:09:00;5.70;;;2.70;;
25127;SDS011;13107;51.304;6.866;2023-02-28T17:13:02;5.20;;;2.87;;
25127;SDS011;13107;51.304;6.866;2023-02-28T17:17:19;3.47;;;2.30;;
25127;SDS011;13107;51.304;6.866;2023-02-28T17:21:22;4.50;;;2.42;;
25127;SDS011;13107;51.304;6.866;2023-02-28T17:25:24;5.95;;;3.03;;
25127;SDS011;13107;51.304;6.866;2023-02-28T17:29:26;4.40;;;2.40;;
25127;SDS011;13107;51.304;6.866;2023-02-28T17:33:28;4.37;;;2.60;;
25127;SDS011;13107;51.304;6.866;2023-02-28T17:37:29;4.18;;;2.40;;
25127;SDS011;13107;51.304;6.866;2023-02-28T17:41:31;4.90;;;2.87;;
25127;SDS011;13107;51.304;6.866;2023-02-28T17:45:33;4.22;;;2.70;;
25127;SDS011;13107;51.304;6.866;2023-02-28T17:49:36;6.95;;;2.87;;
25127;SDS011;13107;51.304;6.866;2023-02-28T17:53:38;4.40;;;2.33;;
25127;SDS011;13107;51.304;6.866;2023-02-28T17:57:40;3.65;;;2.30;;
25127;SDS011;13107;51.304;6.866;2023-02-28T18:01:43;4.65;;;2.37;;
25127;SDS011;13107;51.304;6.866;2023-02-28T18:05:45;5.35;;;3.10;;
25127;SDS011;13107;51.304;6.866;2023-02-28T18:09:47;7.22;;;3.62;;
25127;SDS011;13107;51.304;6.866;2023-02-28T18:13:51;5.50;;;3.60;;
25127;SDS011;13107;51.304;6.866;2023-02-28T18:17:53;6.12;;;4.03;;
25127;SDS011;13107;51.304;6.866;2023-02-28T18:21:55;6.65;;;3.60;;
25127;SDS011;13107;51.304;6.866;2023-02-28T18:25:57;6.03;;;3.83;;
25127;SDS011;13107;51.304;6.866;2023-02-28T18:29:59;5.85;;;4.30;;
25127;SDS011;13107;51.304;6.866;2023-02-28T18:34:00;5.07;;;3.85;;
25127;SDS011;13107;51.304;6.866;2023-02-28T18:38:03;13.62;;;6.43;;
25127;SDS011;13107;51.304;6.866;2023-02-28T18:42:07;7.05;;;4.10;;
25127;SDS011;13107;51.304;6.866;2023-02-28T18:46:10;5.07;;;3.08;;
25127;SDS011;13107;51.304;6.866;2023-02-28T18:50:14;5.15;;;3.40;;
25127;SDS011;13107;51.304;6.866;2023-02-28T18:54:15;6.18;;;3.80;;
25127;SDS011;13107;51.304;6.866;2023-02-28T18:58:19;5.65;;;3.47;;
25127;SDS011;13107;51.304;6.866;2023-02-28T19:02:21;7.03;;;3.62;;
25127;SDS011;13107;51.304;6.866;2023-02-28T19:06:22;7.07;;;4.35;;
25127;SDS011;13107;51.304;6.866;2023-02-28T19:10:24;9.15;;;4.30;;
25127;SDS011;13107;51.304;6.866;2023-02-28T19:14:26;7.22;;;4.15;;
25127;SDS011;13107;51.304;6.866;2023-02-28T19:18:27;4.68;;;3.10;;
25127;SDS011;13107;51.304;6.866;2023-02-28T19:22:29;5.05;;;3.08;;
25127;SDS011;13107;51.304;6.866;2023-02-28T19:26:32;5.03;;;3.08;;
25127;SDS011;13107;51.304;6.866;2023-02-28T19:30:33;5.43;;;3.72;;
25127;SDS011;13107;51.304;6.866;2023-02-28T19:34:35;7.22;;;4.05;;
25127;SDS011;13107;51.304;6.866;2023-02-28T19:38:37;6.75;;;3.90;;
25127;SDS011;13107;51.304;6.866;2023-02-28T19:42:39;8.35;;;4.20;;
25127;SDS011;13107;51.304;6.866;2023-02-28T19:46:41;8.98;;;4.07;;
25127;SDS011;13107;51.304;6.866;2023-02-28T19:50:44;6.30;;;4.60;;
25127;SDS011;13107;51.304;6.866;2023-02-28T19:54:46;7.43;;;4.40;;
25127;SDS011;13107;51.304;6.866;2023-02-28T19:58:48;7.47;;;4.12;;
25127;SDS011;13107;51.304;6.866;2023-02-28T20:02:49;8.38;;;4.22;;
25127;SDS011;13107;51.304;6.866;2023-02-28T20:06:51;9.98;;;4.47;;
25127;SDS011;13107;51.304;6.866;2023-02-28T20:10:54;5.62;;;3.97;;
25127;SDS011;13107;51.304;6.866;2023-02-28T20:14:55;5.20;;;3.80;;
25127;SDS011;13107;51.304;6.866;2023-02-28T20:18:57;7.47;;;4.43;;
25127;SDS011;13107;51.304;6.866;2023-02-28T20:22:59;8.50;;;4.53;;
25127;SDS011;13107;51.304;6.866;2023-02-28T20:27:01;8.13;;;4.47;;
25127;SDS011;13107;51.304;6.866;2023-02-28T20:31:37;6.62;;;4.18;;
25127;SDS011;13107;51.304;6.866;2023-02-28T20:35:32;7.35;;;4.60;;
25127;SDS011;13107;51.304;6.866;2023-02-28T20:39:34;8.77;;;4.32;;
25127;SDS011;13107;51.304;6.866;2023-02-28T20:43:36;7.72;;;5.00;;
25127;SDS011;13107;51.304;6.866;2023-02-28T20:47:39;9.65;;;5.95;;
25127;SDS011;13107;51.304;6.866;2023-02-28T20:51:42;10.35;;;5.35;;
25127;SDS011;13107;51.304;6.866;2023-02-28T20:55:54;10.93;;;4.93;;
25127;SDS011;13107;51.304;6.866;2023-02-28T21:00:06;9.43;;;5.43;;
25127;SDS011;13107;51.304;6.866;2023-02-28T21:04:15;9.68;;;5.00;;
25127;SDS011;13107;51.304;6.866;2023-02-28T21:08:17;11.73;;;6.53;;
25127;SDS011;13107;51.304;6.866;2023-02-28T21:12:19;12.63;;;6.60;;
25127;SDS011;13107;51.304;6.866;2023-02-28T21:16:22;11.57;;;7.10;;
25127;SDS011;13107;51.304;6.866;2023-02-28T21:20:25;13.68;;;6.60;;
25127;SDS011;13107;51.304;6.866;2023-02-28T21:24:27;10.88;;;6.25;;
25127;SDS011;13107;51.304;6.866;2023-02-28T21:28:29;8.95;;;6.07;;
25127;SDS011;13107;51.304;6.866;2023-02-28T21:32:31;10.00;;;6.30;;
25127;SDS011;13107;51.304;6.866;2023-02-28T21:36:37;9.38;;;5.47;;
25127;SDS011;13107;51.304;6.866;2023-02-28T21:40:40;10.00;;;5.85;;
25127;SDS011;13107;51.304;6.866;2023-02-28T21:44:42;10.30;;;6.35;;
25127;SDS011;13107;51.304;6.866;2023-02-28T21:48:43;12.40;;;6.32;;
25127;SDS011;13107;51.304;6.866;2023-02-28T21:52:45;11.05;;;5.85;;
25127;SDS011;13107;51.304;6.866;2023-02-28T21:56:47;8.45;;;5.47;;
25127;SDS011;13107;51.304;6.866;2023-02-28T22:00:50;10.63;;;6.28;;
25127;SDS011;13107;51.304;6.866;2023-02-28T22:04:52;8.98;;;5.90;;
25127;SDS011;13107;51.304;6.866;2023-02-28T22:08:54;11.65;;;6.00;;
25127;SDS011;13107;51.304;6.866;2023-02-28T22:12:58;9.10;;;5.22;;
25127;SDS011;13107;51.304;6.866;2023-02-28T22:17:01;8.35;;;5.43;;
25127;SDS011;13107;51.304;6.866;2023-02-28T22:21:04;8.43;;;5.40;;
25127;SDS011;13107;51.304;6.866;2023-02-28T22:25:06;8.20;;;5.75;;
25127;SDS011;13107;51.304;6.866;2023-02-28T22:29:12;8.35;;;5.80;;
25127;SDS011;13107;51.304;6.866;2023-02-28T22:33:14;11.75;;;6.25;;
25127;SDS011;13107;51.304;6.866;2023-02-28T22:37:16;8.88;;;5.45;;
25127;SDS011;13107;51.304;6.866;2023-02-28T22:41:19;9.05;;;5.75;;
25127;SDS011;13107;51.304;6.866;2023-02-28T22:45:22;8.18;;;5.37;;
25127;SDS011;13107;51.304;6.866;2023-02-28T22:49:24;8.50;;;5.78;;
25127;SDS011;13107;51.304;6.866;2023-02-28T22:53:26;10.02;;;5.53;;
25127;SDS011;13107;51.304;6.866;2023-02-28T22:57:29;9.20;;;5.80;;
25127;SDS011;13107;51.304;6.866;2023-02-28T23:01:31;8.55;;;5.95;;
25127;SDS011;13107;51.304;6.866;2023-02-28T23:05:34;8.05;;;5.90;;
25127;SDS011;13107;51.304;6.866;2023-02-28T23:09:36;10.75;;;5.78;;
25127;SDS011;13107;51.304;6.866;2023-02-28T23:13:37;9.70;;;5.78;;
25127;SDS011;13107;51.304;6.866;2023-02-28T23:17:39;7.65;;;5.70;;
25127;SDS011;13107;51.304;6.866;2023-02-28T23:21:41;8.77;;;5.35;;
25127;SDS011;13107;51.304;6.866;2023-02-28T23:25:44;9.32;;;5.53;;
25127;SDS011;13107;51.304;6.866;2023-02-28T23:29:46;8.25;;;5.57;;
25127;SDS011;13107;51.304;6.866;2023-02-28T23:33:47;10.45;;;6.10;;
25127;SDS011;13107;51.304;6.866;2023-02-28T23:37:49;9.82;;;5.72;;
25127;SDS011;13107;51.304;6.866;2023-02-28T23:41:51;8.70;;;5.80;;
25127;SDS011;13107;51.304;6.866;2023-02-28T23:45:56;9.82;;;6.57;;
25127;SDS011;13107;51.304;6.866;2023-02-28T23:49:58;13.15;;;5.95;;
25127;SDS011;13107;51.304;6.866;2023-02-28T23:53:59;12.00;;;5.75;;
25127;SDS011;13107;51.304;6.866;2023-02-28T23:58:03;9.88;;;6.20;;
